This is the latest recevied weather packets stored in our database for station/object IW1RID-3. If no packets are shown the sender has not sent any weather packets the latest 10 day(s).
| Time | Temp. | Humidity | Pressure | Rain* | Wind** | Luminosity | Snow |
|---|---|---|---|---|---|---|---|
| 1777361318 | 17.78° C | 70% | 1074.8 hPa | - | - | - | - |
| 1777360114 | 16.67° C | 73% | 1074.9 hPa | - | - | - | - |
| 1777358909 | 16.11° C | 75% | 1074.9 hPa | - | - | - | - |
| 1777357704 | 15° C | 79% | 1074.8 hPa | - | - | - | - |
| 1777356499 | 13.89° C | 83% | 1074.7 hPa | - | - | - | - |
| 1777355294 | 13.33° C | 86% | 1074.6 hPa | - | - | - | - |
| 1777354089 | 12.78° C | 88% | 1074.4 hPa | - | - | - | - |
| 1777352885 | 12.22° C | 88% | 1074.3 hPa | - | - | - | - |
| 1777351680 | 12.22° C | 87% | 1074.2 hPa | - | - | - | - |
| 1777350475 | 12.22° C | 87% | 1074.2 hPa | - | - | - | - |
| 1777349270 | 12.22° C | 87% | 1074.1 hPa | - | - | - | - |
| 1777348064 | 12.78° C | 84% | 1074.2 hPa | - | - | - | - |
| 1777346859 | 13.33° C | 83% | 1074.2 hPa | - | - | - | - |
| 1777345655 | 13.33° C | 83% | 1074.5 hPa | - | - | - | - |
| 1777344449 | 13.33° C | 83% | 1074.5 hPa | - | - | - | - |
| 1777343246 | 13.33° C | 84% | 1074.6 hPa | - | - | - | - |
| 1777342040 | 13.33° C | 84% | 1074.9 hPa | - | - | - | - |
| 1777340836 | 12.78° C | 86% | 1074.9 hPa | - | - | - | - |
| 1777339631 | 12.78° C | 86% | 1075 hPa | - | - | - | - |
| 1777337222 | 12.22° C | 89% | 1075.1 hPa | - | - | - | - |
| 1777336019 | 12.22° C | 89% | 1075.2 hPa | - | - | - | - |
| 1777334812 | 12.22° C | 89% | 1075.4 hPa | - | - | - | - |
| 1777333607 | 12.78° C | 88% | 1075.5 hPa | - | - | - | - |
| 1777332401 | 12.78° C | 88% | 1075.5 hPa | - | - | - | - |
| 1777331195 | 13.33° C | 87% | 1075.5 hPa | - | - | - | - |
* Rain since midnight (hover to see other rain measurements)
** Current wind speed in m/s (hover to see current wind gust speed)